createdAt,value
2022-11-25T00:00:49.731Z,12.37
2022-11-25T00:03:17.120Z,12.26
2022-11-25T00:05:44.629Z,12.34
2022-11-25T00:08:11.859Z,12.33
2022-11-25T00:10:39.018Z,12.38
2022-11-25T00:13:06.806Z,12.32
2022-11-25T00:15:34.042Z,12.16
2022-11-25T00:18:01.254Z,12.35
2022-11-25T00:20:28.439Z,12.30
2022-11-25T00:22:55.745Z,12.30
2022-11-25T00:25:23.355Z,12.30
2022-11-25T00:27:52.754Z,12.48
2022-11-25T00:30:20.064Z,12.30
2022-11-25T00:32:47.294Z,12.27
2022-11-25T00:35:14.834Z,12.08
2022-11-25T00:37:42.108Z,12.27
2022-11-25T00:40:10.218Z,12.25
2022-11-25T00:42:56.380Z,12.16
2022-11-25T00:45:23.561Z,12.24
2022-11-25T00:47:53.490Z,12.22
2022-11-25T00:50:20.681Z,12.25
2022-11-25T00:52:47.881Z,12.19
2022-11-25T00:55:15.180Z,12.02
2022-11-25T00:57:42.653Z,11.91
2022-11-25T01:00:11.477Z,12.02
2022-11-25T01:02:41.970Z,11.98
2022-11-25T01:05:10.038Z,12.02
2022-11-25T01:07:37.573Z,12.11
2022-11-25T01:10:05.340Z,12.10
2022-11-25T01:12:32.535Z,11.98
2022-11-25T01:14:59.732Z,11.89
2022-11-25T01:17:27.158Z,12.00
2022-11-25T01:19:54.632Z,12.12
2022-11-25T01:22:21.820Z,11.90
2022-11-25T01:24:48.969Z,11.68
2022-11-25T01:27:16.151Z,11.69
2022-11-25T01:29:43.315Z,11.78
2022-11-25T01:32:10.662Z,11.79
2022-11-25T01:34:39.175Z,11.71
2022-11-25T01:37:06.510Z,11.61
2022-11-25T01:39:33.691Z,11.84
2022-11-25T01:42:02.070Z,11.74
2022-11-25T01:44:30.983Z,11.72
2022-11-25T01:47:16.852Z,11.79
2022-11-25T01:50:05.459Z,12.08
2022-11-25T01:52:44.013Z,12.11
2022-11-25T01:55:14.910Z,11.80
2022-11-25T01:57:47.246Z,11.79
2022-11-25T02:00:14.877Z,11.65
2022-11-25T02:02:44.744Z,11.58
2022-11-25T02:05:14.505Z,11.81
2022-11-25T02:07:44.536Z,11.71
2022-11-25T02:10:14.998Z,11.79
2022-11-25T02:12:44.985Z,11.63
2022-11-25T02:15:13.862Z,11.58
2022-11-25T02:17:42.583Z,11.64
2022-11-25T02:20:15.095Z,11.50
2022-11-25T02:22:45.479Z,11.44
2022-11-25T02:25:30.780Z,11.40
2022-11-25T02:28:14.836Z,11.53
2022-11-25T02:30:42.977Z,11.42
2022-11-25T02:33:10.432Z,11.43
2022-11-25T02:35:41.071Z,11.42
2022-11-25T02:38:21.020Z,11.26
2022-11-25T02:41:12.325Z,11.22
2022-11-25T02:43:40.286Z,11.18
2022-11-25T02:46:18.798Z,11.18
2022-11-25T02:51:37.637Z,11.43
2022-11-25T02:54:05.165Z,11.32
2022-11-25T02:56:34.413Z,11.49
2022-11-25T02:59:02.212Z,11.46
2022-11-25T03:01:31.484Z,11.25
2022-11-25T03:03:59.241Z,11.31
2022-11-25T03:06:29.156Z,11.13
2022-11-25T03:08:57.374Z,11.28
2022-11-25T03:12:03.766Z,11.12
2022-11-25T03:14:31.096Z,11.20
2022-11-25T03:16:58.363Z,11.26
2022-11-25T03:19:26.982Z,11.34
2022-11-25T03:21:54.147Z,11.34
2022-11-25T03:24:21.441Z,11.21
2022-11-25T03:26:49.930Z,11.34
2022-11-25T03:29:18.134Z,11.42
2022-11-25T03:31:45.468Z,11.35
2022-11-25T03:34:13.015Z,11.32
2022-11-25T03:36:41.143Z,11.29
2022-11-25T03:39:09.104Z,11.37
2022-11-25T03:41:38.022Z,11.41
2022-11-25T03:44:05.462Z,11.45
2022-11-25T03:46:34.658Z,11.31
2022-11-25T03:49:04.518Z,11.36
2022-11-25T03:51:31.866Z,11.22
2022-11-25T03:54:00.124Z,11.35
2022-11-25T03:56:27.451Z,11.20
2022-11-25T03:58:54.810Z,11.06
2022-11-25T04:01:23.076Z,11.10
2022-11-25T04:03:51.017Z,11.18
2022-11-25T04:06:20.158Z,11.14
2022-11-25T04:08:48.667Z,11.08
2022-11-25T04:11:15.917Z,11.14
2022-11-25T04:13:47.070Z,10.92
2022-11-25T04:16:23.813Z,10.74
2022-11-25T04:18:52.361Z,10.68
2022-11-25T04:21:19.633Z,10.86
2022-11-25T04:23:46.945Z,10.91
2022-11-25T04:26:15.479Z,11.03
2022-11-25T04:28:42.813Z,10.79
2022-11-25T04:31:10.924Z,10.78
2022-11-25T04:33:41.774Z,10.75
2022-11-25T04:36:09.382Z,10.82
2022-11-25T04:38:36.898Z,10.64
2022-11-25T04:41:05.738Z,10.79
2022-11-25T04:43:38.421Z,10.96
2022-11-25T04:46:16.236Z,11.02
2022-11-25T04:48:47.560Z,11.03
2022-11-25T04:51:16.120Z,10.99
2022-11-25T04:53:45.619Z,11.03
2022-11-25T04:56:18.843Z,10.88
2022-11-25T04:59:06.059Z,10.96
2022-11-25T05:01:36.629Z,10.95
2022-11-25T05:04:15.889Z,11.05
2022-11-25T05:06:43.990Z,11.08
2022-11-25T05:09:12.513Z,10.95
2022-11-25T05:11:41.745Z,10.86
2022-11-25T05:14:09.385Z,10.72
2022-11-25T05:16:37.009Z,10.87
2022-11-25T05:19:04.415Z,10.71
2022-11-25T05:21:32.942Z,10.75
2022-11-25T05:24:00.179Z,10.81
2022-11-25T05:26:29.887Z,10.76
2022-11-25T05:28:59.875Z,10.76
2022-11-25T05:31:27.584Z,10.88
2022-11-25T05:33:54.871Z,10.84
2022-11-25T05:36:23.301Z,10.64
2022-11-25T05:38:50.497Z,10.85
2022-11-25T05:41:26.933Z,10.78
2022-11-25T05:43:54.610Z,10.51
2022-11-25T05:46:23.114Z,10.61
2022-11-25T05:48:55.751Z,10.50
2022-11-25T05:51:24.112Z,10.56
2022-11-25T05:53:52.147Z,10.65
2022-11-25T05:56:21.913Z,10.47
2022-11-25T05:59:24.420Z,10.37
2022-11-25T06:02:14.464Z,10.41
2022-11-25T06:04:41.716Z,10.54
2022-11-25T06:07:09.375Z,10.65
2022-11-25T06:09:36.721Z,10.58
2022-11-25T06:12:04.168Z,10.58
2022-11-25T06:14:34.533Z,10.56
2022-11-25T06:17:02.659Z,10.66
2022-11-25T06:19:37.215Z,10.57
2022-11-25T06:22:04.850Z,10.62
2022-11-25T06:24:32.078Z,10.45
2022-11-25T06:27:04.840Z,10.54
2022-11-25T06:29:33.162Z,10.48
2022-11-25T06:32:00.399Z,10.52
2022-11-25T06:34:42.827Z,10.70
2022-11-25T06:37:24.907Z,10.46
2022-11-25T06:39:52.514Z,10.53
2022-11-25T06:42:19.757Z,10.53
2022-11-25T06:44:46.938Z,10.79
2022-11-25T06:47:14.205Z,10.68
2022-11-25T06:49:41.348Z,10.25
2022-11-25T06:52:08.655Z,10.43
2022-11-25T06:54:36.510Z,10.68
2022-11-25T06:57:03.887Z,10.52
2022-11-25T06:59:32.356Z,10.48
2022-11-25T07:01:59.772Z,10.43
2022-11-25T07:04:27.064Z,10.29
2022-11-25T07:06:54.588Z,10.36
2022-11-25T07:09:22.540Z,10.37
2022-11-25T07:11:49.722Z,10.40
2022-11-25T07:14:17.318Z,10.49
2022-11-25T07:16:45.384Z,10.45
2022-11-25T07:19:14.488Z,10.55
2022-11-25T07:21:43.387Z,10.41
2022-11-25T07:24:11.040Z,10.43
2022-11-25T07:26:39.363Z,10.31
2022-11-25T07:31:59.489Z,10.22
2022-11-25T07:34:26.767Z,10.23
2022-11-25T07:36:54.111Z,10.20
2022-11-25T07:39:22.894Z,10.32
2022-11-25T07:41:51.444Z,10.40
2022-11-25T07:44:19.767Z,10.49
2022-11-25T07:46:53.050Z,10.75
2022-11-25T07:49:24.835Z,10.82
2022-11-25T07:51:57.998Z,11.02
2022-11-25T07:54:25.733Z,10.69
2022-11-25T07:56:53.609Z,10.94
2022-11-25T07:59:22.656Z,11.08
2022-11-25T08:01:54.394Z,11.24
2022-11-25T08:04:22.503Z,11.20
2022-11-25T08:06:51.300Z,11.27
2022-11-25T08:09:23.731Z,11.16
2022-11-25T08:11:51.686Z,10.98
2022-11-25T08:14:18.979Z,10.90
2022-11-25T08:16:46.798Z,10.94
2022-11-25T08:19:15.808Z,11.17
2022-11-25T08:21:43.295Z,11.17
2022-11-25T08:24:15.935Z,11.01
2022-11-25T08:26:43.314Z,10.91
2022-11-25T08:29:13.148Z,11.14
2022-11-25T08:31:40.397Z,11.00
2022-11-25T08:34:07.574Z,11.11
2022-11-25T08:36:36.197Z,11.15
2022-11-25T08:39:28.925Z,10.94
2022-11-25T08:41:54.097Z,11.28
2022-11-25T08:44:21.347Z,11.24
2022-11-25T08:46:48.654Z,10.96
2022-11-25T08:49:17.365Z,10.87
2022-11-25T08:51:44.717Z,10.96
2022-11-25T08:54:12.401Z,11.20
2022-11-25T08:56:39.674Z,11.08
2022-11-25T08:59:07.023Z,10.95
2022-11-25T09:01:34.399Z,10.88
2022-11-25T09:04:01.659Z,10.92
2022-11-25T09:06:29.382Z,10.88
2022-11-25T09:08:59.164Z,10.98
2022-11-25T09:11:26.609Z,11.12
2022-11-25T09:13:53.972Z,11.14
2022-11-25T09:16:21.561Z,11.26
2022-11-25T09:18:55.386Z,11.09
2022-11-25T09:21:25.219Z,11.18
2022-11-25T09:23:54.619Z,11.22
2022-11-25T09:26:29.891Z,11.14
2022-11-25T09:28:57.717Z,11.23
2022-11-25T09:31:25.166Z,11.15
2022-11-25T09:33:52.613Z,11.14
2022-11-25T09:36:20.902Z,11.28
2022-11-25T09:38:48.201Z,11.35
2022-11-25T09:41:38.514Z,11.30
2022-11-25T09:44:39.447Z,11.41
2022-11-25T09:47:46.656Z,11.38
2022-11-25T09:50:23.988Z,11.40
2022-11-25T09:53:10.738Z,11.30
2022-11-25T09:55:42.988Z,11.20
2022-11-25T09:58:33.513Z,10.91
2022-11-25T10:01:05.438Z,11.11
2022-11-25T10:03:38.258Z,11.31
2022-11-25T10:06:18.403Z,11.09
2022-11-25T10:08:48.242Z,10.86
2022-11-25T10:11:23.201Z,10.89
2022-11-25T10:14:07.692Z,11.11
2022-11-25T10:16:37.960Z,11.00
2022-11-25T10:19:24.777Z,11.01
2022-11-25T10:21:52.705Z,11.15
2022-11-25T10:24:21.472Z,11.43
2022-11-25T10:26:54.963Z,11.18
2022-11-25T10:29:25.763Z,11.21
2022-11-25T10:31:59.487Z,11.47
2022-11-25T10:34:40.871Z,11.44
2022-11-25T10:37:14.067Z,11.19
2022-11-25T10:39:41.300Z,11.40
2022-11-25T10:42:19.069Z,11.32
2022-11-25T10:44:46.338Z,11.65
2022-11-25T10:47:36.999Z,11.42
2022-11-25T10:50:29.323Z,11.41
2022-11-25T10:53:10.520Z,11.59
2022-11-25T10:55:37.852Z,11.58
2022-11-25T10:58:28.175Z,11.49
2022-11-25T11:01:05.533Z,11.84
2022-11-25T11:03:33.368Z,11.74
2022-11-25T11:06:00.635Z,11.68
2022-11-25T11:08:38.448Z,11.75
2022-11-25T11:11:14.947Z,12.10
2022-11-25T11:13:43.240Z,12.00
2022-11-25T11:16:29.911Z,12.05
2022-11-25T11:18:57.817Z,11.71
2022-11-25T11:21:38.045Z,11.62
2022-11-25T11:24:22.746Z,11.82
2022-11-25T11:27:15.098Z,12.01
2022-11-25T11:29:42.589Z,12.00
2022-11-25T11:32:21.003Z,11.98
2022-11-25T11:34:51.173Z,12.09
2022-11-25T11:37:36.526Z,12.10
2022-11-25T11:40:25.583Z,12.39
2022-11-25T11:43:11.419Z,12.37
2022-11-25T11:45:56.815Z,12.50
2022-11-25T11:48:32.151Z,12.29
2022-11-25T11:51:05.604Z,12.64
2022-11-25T11:54:03.647Z,12.68
2022-11-25T11:56:52.048Z,12.84
2022-11-25T11:59:46.631Z,12.71
2022-11-25T12:02:48.230Z,12.57
2022-11-25T12:05:22.084Z,12.63
2022-11-25T12:07:58.420Z,12.98
2022-11-25T12:10:29.562Z,13.18
2022-11-25T12:13:09.053Z,13.21
2022-11-25T12:15:58.021Z,12.89
2022-11-25T12:18:28.187Z,12.84
2022-11-25T12:21:05.750Z,12.77
2022-11-25T12:24:12.410Z,12.87
2022-11-25T12:26:45.752Z,12.87
2022-11-25T12:29:19.744Z,12.96
2022-11-25T12:31:56.143Z,12.70
2022-11-25T12:34:34.857Z,12.77
2022-11-25T12:37:15.361Z,12.79
2022-11-25T12:39:51.952Z,12.78
2022-11-25T12:42:23.567Z,12.67
2022-11-25T12:45:20.286Z,12.97
2022-11-25T12:47:47.549Z,13.21
2022-11-25T12:50:18.074Z,13.05
2022-11-25T12:52:55.862Z,13.17
2022-11-25T12:55:27.917Z,13.01
2022-11-25T12:58:08.776Z,12.74
2022-11-25T13:00:48.003Z,12.82
2022-11-25T13:03:49.530Z,12.72
2022-11-25T13:06:23.902Z,12.76
2022-11-25T13:09:14.887Z,13.11
2022-11-25T13:12:23.901Z,12.96
2022-11-25T13:14:59.000Z,13.21
2022-11-25T13:17:27.430Z,13.28
2022-11-25T13:20:27.205Z,13.55
2022-11-25T13:23:10.415Z,13.54
2022-11-25T13:25:40.961Z,13.59
2022-11-25T13:28:43.997Z,13.12
2022-11-25T13:31:13.894Z,13.15
2022-11-25T13:33:44.496Z,13.33
2022-11-25T13:36:20.151Z,13.28
2022-11-25T13:38:50.619Z,13.72
2022-11-25T13:41:22.324Z,13.41
2022-11-25T13:44:01.744Z,13.55
2022-11-25T13:46:39.962Z,13.44
2022-11-25T13:49:22.204Z,13.52
2022-11-25T13:51:52.030Z,13.24
2022-11-25T13:54:23.622Z,13.28
2022-11-25T13:57:24.546Z,13.39
2022-11-25T14:00:25.646Z,13.57
2022-11-25T14:02:53.021Z,13.85
2022-11-25T14:05:46.599Z,13.90
2022-11-25T14:08:27.705Z,13.82
2022-11-25T14:11:10.313Z,13.65
2022-11-25T14:13:49.564Z,13.59
2022-11-25T14:16:39.316Z,13.74
2022-11-25T14:19:35.601Z,13.66
2022-11-25T14:22:22.794Z,13.77
2022-11-25T14:24:52.466Z,13.66
2022-11-25T14:27:23.006Z,13.47
2022-11-25T14:30:01.263Z,13.50
2022-11-25T14:32:33.070Z,13.41
2022-11-25T14:35:17.266Z,13.30
2022-11-25T14:37:47.472Z,13.47
2022-11-25T14:40:22.018Z,13.41
2022-11-25T14:42:52.179Z,13.63
2022-11-25T14:45:26.704Z,13.67
2022-11-25T14:47:54.062Z,13.86
2022-11-25T14:50:38.286Z,13.66
2022-11-25T14:53:10.190Z,13.30
2022-11-25T14:55:37.937Z,13.41
2022-11-25T14:58:05.249Z,13.48
2022-11-25T15:00:32.742Z,13.50
2022-11-25T15:03:04.906Z,13.58
2022-11-25T15:05:37.888Z,13.66
2022-11-25T15:08:08.314Z,13.68
2022-11-25T15:10:59.331Z,13.81
2022-11-25T15:13:40.995Z,13.76
2022-11-25T15:16:12.935Z,13.69
2022-11-25T15:18:48.937Z,13.94
2022-11-25T15:21:18.696Z,14.08
2022-11-25T15:23:45.985Z,13.87
2022-11-25T15:26:20.479Z,13.83
2022-11-25T15:28:48.060Z,13.83
2022-11-25T15:31:20.520Z,13.63
2022-11-25T15:33:54.367Z,13.75
2022-11-25T15:36:23.842Z,13.91
2022-11-25T15:38:51.274Z,13.68
2022-11-25T15:41:33.913Z,13.64
2022-11-25T15:44:03.423Z,13.63
2022-11-25T15:46:33.309Z,13.42
2022-11-25T15:49:06.127Z,13.42
2022-11-25T15:51:36.463Z,13.58
2022-11-25T15:54:17.433Z,13.57
2022-11-25T15:56:50.149Z,13.54
2022-11-25T15:59:42.670Z,13.53
2022-11-25T16:02:39.474Z,13.46
2022-11-25T16:05:15.813Z,13.32
2022-11-25T16:07:52.434Z,13.41
2022-11-25T16:10:22.596Z,13.46
2022-11-25T16:13:24.031Z,13.38
2022-11-25T16:16:10.145Z,13.28
2022-11-25T16:18:40.945Z,13.34
2022-11-25T16:21:12.424Z,13.26
2022-11-25T16:23:43.116Z,13.65
2022-11-25T16:26:16.881Z,13.29
2022-11-25T16:28:54.106Z,13.28
2022-11-25T16:31:22.049Z,13.39
2022-11-25T16:33:51.893Z,13.17
2022-11-25T16:36:19.272Z,13.25
2022-11-25T16:38:51.647Z,13.28
2022-11-25T16:41:28.486Z,13.06
2022-11-25T16:43:59.333Z,13.10
2022-11-25T16:46:27.206Z,13.28
2022-11-25T16:48:54.488Z,13.20
2022-11-25T16:51:24.227Z,13.29
2022-11-25T16:53:51.432Z,13.11
2022-11-25T16:56:25.683Z,13.09
2022-11-25T16:58:55.604Z,13.08
2022-11-25T17:01:25.774Z,13.33
2022-11-25T17:03:53.118Z,13.41
2022-11-25T17:06:25.968Z,13.27
2022-11-25T17:08:53.837Z,13.33
2022-11-25T17:11:29.929Z,13.31
2022-11-25T17:13:59.267Z,13.24
2022-11-25T17:16:28.052Z,13.25
2022-11-25T17:18:56.704Z,13.20
2022-11-25T17:21:28.702Z,13.23
2022-11-25T17:24:00.911Z,13.30
2022-11-25T17:26:37.605Z,13.11
2022-11-25T17:29:08.192Z,12.56
2022-11-25T17:31:37.482Z,12.69
2022-11-25T17:34:04.931Z,12.86
2022-11-25T17:36:32.162Z,12.96
2022-11-25T17:38:59.598Z,13.13
2022-11-25T17:41:28.603Z,12.75
2022-11-25T17:43:58.633Z,12.66
2022-11-25T17:46:29.512Z,12.71
2022-11-25T17:48:56.886Z,12.83
2022-11-25T17:51:24.079Z,12.71
2022-11-25T17:53:52.833Z,12.57
2022-11-25T17:56:26.084Z,12.65
2022-11-25T17:58:53.524Z,12.66
2022-11-25T18:01:21.199Z,12.72
2022-11-25T18:03:53.275Z,12.76
2022-11-25T18:06:21.037Z,12.69
2022-11-25T18:08:48.272Z,12.86
2022-11-25T18:11:18.038Z,12.64
2022-11-25T18:13:47.491Z,12.68
2022-11-25T18:16:17.049Z,12.55
2022-11-25T18:18:44.335Z,12.56
2022-11-25T18:21:11.898Z,12.56
2022-11-25T18:23:39.162Z,12.43
2022-11-25T18:26:06.544Z,12.48
2022-11-25T18:28:33.825Z,12.46
2022-11-25T18:31:03.800Z,12.48
2022-11-25T18:33:31.355Z,12.60
2022-11-25T18:35:58.655Z,12.52
2022-11-25T18:38:25.932Z,12.30
2022-11-25T18:40:54.256Z,12.33
2022-11-25T18:43:24.710Z,12.37
2022-11-25T18:45:53.641Z,12.33
2022-11-25T18:48:21.865Z,12.34
2022-11-25T18:50:50.764Z,12.25
2022-11-25T18:53:18.139Z,12.11
2022-11-25T18:55:45.510Z,12.04
2022-11-25T18:58:19.115Z,12.08
2022-11-25T19:00:50.178Z,11.96
2022-11-25T19:03:20.497Z,11.99
2022-11-25T19:05:48.302Z,11.89
2022-11-25T19:08:15.613Z,11.69
2022-11-25T19:10:45.165Z,11.79
2022-11-25T19:13:17.880Z,11.85
2022-11-25T19:15:45.453Z,11.99
2022-11-25T19:18:17.254Z,12.03
2022-11-25T19:20:45.983Z,11.97
2022-11-25T19:23:22.660Z,11.94
2022-11-25T19:25:50.111Z,11.75
2022-11-25T19:28:20.215Z,11.83
2022-11-25T19:30:47.646Z,11.87
2022-11-25T19:33:27.044Z,11.75
2022-11-25T19:35:55.026Z,11.62
2022-11-25T19:38:25.975Z,11.69
2022-11-25T19:40:55.131Z,11.62
2022-11-25T19:43:23.365Z,11.66
2022-11-25T19:45:50.858Z,11.62
2022-11-25T19:48:19.806Z,11.69
2022-11-25T19:50:49.098Z,11.64
2022-11-25T19:53:20.020Z,11.48
2022-11-25T19:55:47.989Z,11.45
2022-11-25T19:58:15.672Z,11.35
2022-11-25T20:00:44.458Z,11.42
2022-11-25T20:03:16.523Z,11.26
2022-11-25T20:05:43.802Z,11.27
2022-11-25T20:08:18.595Z,11.32
2022-11-25T20:10:46.113Z,11.29
2022-11-25T20:13:13.428Z,11.18
2022-11-25T20:15:43.837Z,11.14
2022-11-25T20:18:18.106Z,11.12
2022-11-25T20:20:46.647Z,11.18
2022-11-25T20:23:38.653Z,11.16
2022-11-25T20:26:16.239Z,11.41
2022-11-25T20:28:43.564Z,11.30
2022-11-25T20:31:13.403Z,11.30
2022-11-25T20:33:40.750Z,11.20
2022-11-25T20:36:13.949Z,11.18
2022-11-25T20:38:54.414Z,11.14
2022-11-25T20:41:27.468Z,11.10
2022-11-25T20:43:56.993Z,11.15
2022-11-25T20:46:28.937Z,11.21
2022-11-25T20:48:58.421Z,11.09
2022-11-25T20:51:25.984Z,11.08
2022-11-25T20:53:56.606Z,11.14
2022-11-25T20:56:25.728Z,11.25
2022-11-25T20:58:54.181Z,11.22
2022-11-25T21:01:21.983Z,11.31
2022-11-25T21:03:49.928Z,11.13
2022-11-25T21:06:24.613Z,11.06
2022-11-25T21:08:53.669Z,11.21
2022-11-25T21:11:22.640Z,11.06
2022-11-25T21:13:50.339Z,11.32
2022-11-25T21:16:18.079Z,11.39
2022-11-25T21:18:45.343Z,11.44
2022-11-25T21:21:29.129Z,11.26
2022-11-25T21:23:58.288Z,11.11
2022-11-25T21:26:26.179Z,10.88
2022-11-25T21:28:54.305Z,10.79
2022-11-25T21:31:23.672Z,10.81
2022-11-25T21:33:53.460Z,10.90
2022-11-25T21:36:23.200Z,10.77
2022-11-25T21:38:51.980Z,11.00
2022-11-25T21:41:19.708Z,10.80
2022-11-25T21:43:48.697Z,10.67
2022-11-25T21:46:21.425Z,10.67
2022-11-25T21:48:48.829Z,10.74
2022-11-25T21:51:21.831Z,10.59
2022-11-25T21:53:50.841Z,10.68
2022-11-25T21:56:34.578Z,10.83
2022-11-25T21:59:03.796Z,10.91
2022-11-25T22:01:31.188Z,10.80
2022-11-25T22:03:58.493Z,10.56
2022-11-25T22:06:28.505Z,10.60
2022-11-25T22:08:56.651Z,10.75
2022-11-25T22:11:31.700Z,10.96
2022-11-25T22:13:59.782Z,11.01
2022-11-25T22:16:31.933Z,11.10
2022-11-25T22:18:59.540Z,11.09
2022-11-25T22:21:26.810Z,10.80
2022-11-25T22:23:54.106Z,10.79
2022-11-25T22:26:25.850Z,10.69
2022-11-25T22:28:53.366Z,10.77
2022-11-25T22:31:20.814Z,10.62
2022-11-25T22:33:48.224Z,10.62
2022-11-25T22:36:24.580Z,10.73
2022-11-25T22:38:51.899Z,14.66
2022-11-25T22:41:19.127Z,13.39
2022-11-25T22:43:49.819Z,12.56
2022-11-25T22:46:18.090Z,11.96
2022-11-25T22:48:45.559Z,11.43
2022-11-25T22:51:21.669Z,11.39
2022-11-25T22:53:48.902Z,11.27
2022-11-25T22:56:18.199Z,11.04
2022-11-25T22:58:46.133Z,10.91
2022-11-25T23:01:14.848Z,10.91
2022-11-25T23:03:43.221Z,10.76
2022-11-25T23:06:12.270Z,10.80
2022-11-25T23:08:41.219Z,10.59
2022-11-25T23:11:15.952Z,10.68
2022-11-25T23:13:43.509Z,10.60
2022-11-25T23:16:11.126Z,10.63
2022-11-25T23:18:40.890Z,10.57
2022-11-25T23:21:17.239Z,10.70
2022-11-25T23:23:44.583Z,10.51
2022-11-25T23:26:12.073Z,10.36
2022-11-25T23:28:39.435Z,10.46
2022-11-25T23:31:07.021Z,10.34
2022-11-25T23:33:37.859Z,10.44
2022-11-25T23:36:14.515Z,10.50
2022-11-25T23:38:44.308Z,10.53
2022-11-25T23:41:15.691Z,10.38
2022-11-25T23:43:43.058Z,10.32
2022-11-25T23:46:13.822Z,10.20
2022-11-25T23:48:42.510Z,10.27
2022-11-25T23:51:10.349Z,10.17
2022-11-25T23:53:39.235Z,10.07
2022-11-25T23:56:06.773Z,10.07
2022-11-25T23:58:34.546Z,10.19
